Time;durP1;ratioP1;P1;durP2;ratioP2;P2;SDS_P1;SDS_P2;PMS_P1;PMS_P2;Temp;Humidity;BMP_temperature;BMP_pressure;BME280_temperature;BME280_humidity;BME280_pressure;Samples;Min_cycle;Max_cycle;Signal;HPM_P1;HPM_P2
2022/12/19 00:01:25;;;;;;;14.40;9.37;;;-2.20;1.00;;;;;;5009444;28;20191;-79
2022/12/19 00:03:56;;;;;;;16.40;9.60;;;-2.30;1.00;;;;;;5008640;28;20292;-80
2022/12/19 00:06:22;;;;;;;12.17;8.47;;;-2.30;1.00;;;;;;5008392;28;20215;-78
2022/12/19 00:08:50;;;;;;;13.40;8.80;;;-2.30;1.00;;;;;;5010181;28;20192;-79
2022/12/19 00:11:18;;;;;;;12.43;8.93;;;-2.40;1.00;;;;;;5010129;28;20179;-77
2022/12/19 00:13:44;;;;;;;13.57;9.30;;;-2.40;1.00;;;;;;5008527;28;20198;-78
2022/12/19 00:16:22;;;;;;;15.27;9.80;;;-2.30;1.00;;;;;;5008265;28;20199;-78
2022/12/19 00:18:48;;;;;;;13.27;8.70;;;-2.30;1.00;;;;;;5010273;28;20242;-78
2022/12/19 00:21:17;;;;;;;12.60;8.90;;;-2.30;1.00;;;;;;5010110;28;20176;-79
2022/12/19 00:23:43;;;;;;;13.90;9.30;;;-2.20;1.00;;;;;;5008685;28;20207;-79
2022/12/19 00:26:12;;;;;;;14.33;9.70;;;-2.20;1.00;;;;;;5009864;28;20204;-80
2022/12/19 00:28:38;;;;;;;17.70;10.67;;;-2.20;1.00;;;;;;5007858;28;20692;-77
2022/12/19 00:31:04;;;;;;;14.77;10.53;;;-2.30;1.00;;;;;;5009173;28;20641;-79
2022/12/19 00:33:30;;;;;;;14.07;9.97;;;-2.40;3.80;;;;;;5009367;28;20195;-77
2022/12/19 00:36:00;;;;;;;15.73;10.67;;;-2.40;8.60;;;;;;5008836;28;20233;-77
2022/12/19 00:38:27;;;;;;;15.13;10.53;;;-2.40;8.70;;;;;;5010629;28;20808;-79
2022/12/19 00:41:04;;;;;;;13.57;9.27;;;-2.50;12.10;;;;;;5009168;28;20273;-80
2022/12/19 00:43:30;;;;;;;14.27;9.90;;;-2.40;13.40;;;;;;5010814;28;20638;-77
2022/12/19 00:45:55;;;;;;;12.80;9.33;;;-2.30;8.60;;;;;;5008805;28;20353;-77
2022/12/19 00:48:21;;;;;;;12.07;9.27;;;-2.30;9.20;;;;;;5009131;28;20259;-80
2022/12/19 00:50:47;;;;;;;14.67;9.73;;;-2.20;8.80;;;;;;5008693;28;20184;-79
2022/12/19 00:53:13;;;;;;;14.30;10.07;;;-2.30;11.10;;;;;;5008521;28;20287;-77
2022/12/19 00:55:38;;;;;;;13.13;9.77;;;-2.30;13.20;;;;;;5009291;28;20534;-79
2022/12/19 00:58:04;;;;;;;11.47;9.43;;;-2.20;12.60;;;;;;5010152;28;20197;-78
2022/12/19 01:00:29;;;;;;;14.57;9.43;;;-2.40;11.80;;;;;;5009626;28;20209;-78
2022/12/19 01:02:55;;;;;;;15.87;9.40;;;-2.30;14.20;;;;;;5010235;28;20298;-80
2022/12/19 01:05:21;;;;;;;13.63;9.60;;;-2.20;13.80;;;;;;5009526;28;20217;-77
2022/12/19 01:07:46;;;;;;;14.13;9.27;;;-2.20;10.60;;;;;;5008980;28;20179;-80
2022/12/19 01:10:12;;;;;;;14.40;9.80;;;-2.20;9.50;;;;;;5009159;28;20176;-80
2022/12/19 01:12:47;;;;;;;11.47;8.67;;;-2.10;13.20;;;;;;5009774;28;20570;-78
2022/12/19 01:15:19;;;;;;;13.83;8.97;;;-2.10;12.70;;;;;;5008082;28;20231;-80
2022/12/19 01:17:46;;;;;;;11.43;8.10;;;-2.00;10.10;;;;;;5007624;28;20183;-78
2022/12/19 01:20:19;;;;;;;10.77;8.10;;;-2.10;8.00;;;;;;5009314;28;20720;-77
2022/12/19 01:22:45;;;;;;;12.70;8.30;;;-1.90;5.50;;;;;;5007829;28;20214;-78
2022/12/19 01:25:11;;;;;;;11.23;8.57;;;-2.10;1.30;;;;;;5007833;28;20203;-78
2022/12/19 01:27:37;;;;;;;11.70;8.07;;;-1.90;1.70;;;;;;5008301;28;20283;-80
2022/12/19 01:30:04;;;;;;;11.13;8.13;;;-2.00;3.20;;;;;;5008951;28;20290;-78
2022/12/19 01:32:32;;;;;;;10.17;7.50;;;-1.90;4.90;;;;;;5007961;28;20203;-79
2022/12/19 01:34:58;;;;;;;12.47;8.63;;;-1.90;18.10;;;;;;5009382;28;20183;-79
2022/12/19 01:37:23;;;;;;;12.50;8.60;;;-2.00;5.30;;;;;;5009170;28;20195;-78
2022/12/19 01:39:49;;;;;;;10.83;7.90;;;-2.00;9.30;;;;;;5007154;28;20645;-79
2022/12/19 01:42:20;;;;;;;13.17;8.63;;;-1.50;6.80;;;;;;5008755;28;20518;-79
2022/12/19 01:45:22;;;;;;;12.77;9.43;;;-1.90;10.80;;;;;;5008087;28;20199;-79
2022/12/19 01:48:06;;;;;;;12.50;7.77;;;-1.90;15.30;;;;;;4990500;28;20196;-79
2022/12/19 01:50:32;;;;;;;10.90;8.23;;;-1.90;14.60;;;;;;5008730;28;20535;-78
2022/12/19 01:52:59;;;;;;;12.17;8.60;;;-1.90;19.60;;;;;;5007972;28;20211;-79
2022/12/19 01:55:25;;;;;;;11.23;8.07;;;-2.10;15.90;;;;;;5006829;28;20310;-81
2022/12/19 01:57:52;;;;;;;13.37;9.07;;;-1.60;15.30;;;;;;5008377;28;20203;-78
2022/12/19 02:00:18;;;;;;;12.83;8.37;;;-1.80;15.60;;;;;;5005895;28;20188;-77
2022/12/19 02:02:58;;;;;;;13.30;9.70;;;-1.80;18.10;;;;;;5007437;28;20211;-78
2022/12/19 02:05:24;;;;;;;11.60;8.87;;;-1.80;24.50;;;;;;5008570;28;20226;-78
2022/12/19 02:07:51;;;;;;;12.53;9.40;;;-1.80;36.90;;;;;;5007765;28;20184;-79
2022/12/19 02:10:16;;;;;;;12.67;9.03;;;-1.80;47.00;;;;;;5008347;28;20199;-79
2022/12/19 02:12:44;;;;;;;13.60;9.37;;;-1.80;68.60;;;;;;5008544;28;20301;-79
2022/12/19 02:15:11;;;;;;;12.87;9.20;;;-1.80;86.60;;;;;;5007790;28;20218;-79
2022/12/19 02:17:37;;;;;;;10.30;8.17;;;-1.80;95.30;;;;;;5007981;28;20192;-79
2022/12/19 02:20:40;;;;;;;12.03;8.70;;;-1.70;93.90;;;;;;5007086;28;20662;-79
2022/12/19 02:23:18;;;;;;;13.97;8.50;;;-1.60;75.70;;;;;;5008419;28;20230;-79
2022/12/19 02:25:56;;;;;;;10.40;8.07;;;-1.70;71.70;;;;;;5007459;28;20396;-79
2022/12/19 02:28:21;;;;;;;10.87;7.70;;;-1.40;67.30;;;;;;5008261;28;20191;-79
2022/12/19 02:31:06;;;;;;;12.03;8.37;;;-1.40;66.30;;;;;;5006568;28;20194;-79
2022/12/19 02:33:43;;;;;;;10.13;7.23;;;-1.40;67.20;;;;;;5007815;28;20203;-79
2022/12/19 02:36:46;;;;;;;11.53;8.10;;;-1.30;64.90;;;;;;5009958;28;20187;-79
2022/12/19 02:39:20;;;;;;;9.47;7.00;;;-1.10;52.50;;;;;;4997749;28;20257;-79
2022/12/19 02:41:57;;;;;;;10.67;7.50;;;-1.10;49.80;;;;;;5010738;28;20179;-79
2022/12/19 02:44:50;;;;;;;10.77;7.43;;;-1.10;68.90;;;;;;5010233;28;20213;-79
2022/12/19 02:47:16;;;;;;;9.80;7.77;;;-1.00;66.10;;;;;;5009746;28;20186;-79
2022/12/19 02:49:42;;;;;;;9.23;7.57;;;-1.00;75.60;;;;;;5011809;28;20544;-78
2022/12/19 02:52:12;;;;;;;9.93;7.50;;;-0.90;67.10;;;;;;5011791;28;20197;-79
2022/12/19 02:54:38;;;;;;;11.20;8.20;;;-0.80;76.90;;;;;;5011052;28;20180;-79
2022/12/19 02:57:35;;;;;;;9.40;7.37;;;-0.90;65.10;;;;;;5011454;28;20206;-78
2022/12/19 03:00:11;;;;;;;11.23;8.63;;;-0.80;82.90;;;;;;5011512;28;20191;-79
2022/12/19 03:02:55;;;;;;;11.00;8.07;;;-0.90;99.90;;;;;;5011126;28;20195;-79
2022/12/19 03:05:21;;;;;;;10.63;7.73;;;-0.50;99.90;;;;;;5009993;28;20310;-80
2022/12/19 03:08:12;;;;;;;11.13;8.27;;;-0.90;99.90;;;;;;5010831;28;20176;-79
2022/12/19 03:10:44;;;;;;;10.53;7.40;;;-0.90;99.90;;;;;;5025772;28;20176;-79
2022/12/19 03:13:25;;;;;;;10.00;7.73;;;-0.90;99.90;;;;;;5008842;28;20203;-80
2022/12/19 03:15:51;;;;;;;11.90;8.30;;;-0.90;99.90;;;;;;5009973;28;20199;-79
2022/12/19 03:18:17;;;;;;;10.30;7.77;;;-0.90;99.90;;;;;;5025892;28;20199;-80
2022/12/19 03:21:03;;;;;;;11.97;9.40;;;-1.00;99.90;;;;;;5025011;28;20187;-79
2022/12/19 03:23:30;;;;;;;11.37;8.83;;;-1.00;99.90;;;;;;5010941;28;20226;-80
2022/12/19 03:26:00;;;;;;;9.43;7.57;;;-1.00;99.90;;;;;;5009510;28;20207;-79
2022/12/19 03:28:34;;;;;;;11.23;8.33;;;-0.90;99.90;;;;;;5010575;28;20500;-80
2022/12/19 03:31:01;;;;;;;10.70;8.03;;;-1.00;99.90;;;;;;5010281;28;20175;-80
2022/12/19 03:33:30;;;;;;;10.43;7.37;;;-1.00;99.90;;;;;;5010950;28;20226;-80
2022/12/19 03:36:01;;;;;;;10.80;7.97;;;-0.90;99.90;;;;;;5009925;28;20703;-79
2022/12/19 03:38:27;;;;;;;10.03;7.20;;;-1.00;99.90;;;;;;5010421;28;20183;-79
2022/12/19 03:40:54;;;;;;;10.87;7.47;;;-1.00;99.90;;;;;;5009863;28;20233;-79
2022/12/19 03:43:21;;;;;;;11.33;7.90;;;-1.00;99.90;;;;;;5025394;28;20203;-80
2022/12/19 03:45:46;;;;;;;10.80;7.87;;;-1.00;99.90;;;;;;5009225;28;20756;-79
2022/12/19 03:48:40;;;;;;;10.80;8.00;;;-1.00;99.90;;;;;;5009149;28;20274;-79
2022/12/19 03:51:18;;;;;;;10.13;7.37;;;-1.00;99.90;;;;;;5009511;28;20199;-79
2022/12/19 03:54:08;;;;;;;11.30;7.77;;;-1.00;99.90;;;;;;5010102;28;20198;-79
2022/12/19 03:56:38;;;;;;;10.07;7.60;;;-1.10;99.90;;;;;;5009370;28;20183;-78
2022/12/19 03:59:11;;;;;;;11.50;8.67;;;-1.10;99.90;;;;;;5008641;28;20690;-78
2022/12/19 04:01:38;;;;;;;12.50;8.13;;;-1.10;99.90;;;;;;5009533;28;20310;-79
2022/12/19 04:04:05;;;;;;;11.23;8.97;;;-1.10;99.90;;;;;;5024596;28;20204;-80
2022/12/19 04:06:33;;;;;;;14.47;9.33;;;-1.10;99.90;;;;;;5007975;28;20195;-79
2022/12/19 04:08:59;;;;;;;12.37;8.70;;;-1.10;99.90;;;;;;5009997;28;20664;-79
2022/12/19 04:11:29;;;;;;;11.63;8.47;;;-1.10;99.90;;;;;;5010164;28;20595;-80
2022/12/19 04:14:03;;;;;;;11.17;7.87;;;-1.10;99.90;;;;;;5010396;28;20214;-79
2022/12/19 04:17:01;;;;;;;10.43;7.90;;;-1.10;99.90;;;;;;5008199;28;20198;-79
2022/12/19 04:20:01;;;;;;;12.17;8.60;;;-1.10;99.90;;;;;;4975081;28;20201;-80
2022/12/19 04:22:39;;;;;;;13.77;9.30;;;-1.00;99.90;;;;;;5005857;28;20960;-80
2022/12/19 04:25:10;;;;;;;12.03;8.37;;;-1.00;99.90;;;;;;5009618;28;20211;-79
2022/12/19 04:27:40;;;;;;;11.07;7.57;;;-1.00;99.90;;;;;;5009572;28;21241;-79
2022/12/19 04:30:06;;;;;;;11.87;8.87;;;-1.00;99.90;;;;;;5009638;28;20599;-80
2022/12/19 04:32:34;;;;;;;12.47;8.17;;;-0.90;99.90;;;;;;5009722;28;20255;-80
2022/12/19 04:35:00;;;;;;;11.40;8.10;;;-0.90;99.90;;;;;;5009545;28;20269;-79
2022/12/19 04:37:26;;;;;;;9.93;7.40;;;-0.90;99.90;;;;;;5007936;28;20195;-80
2022/12/19 04:39:52;;;;;;;12.13;8.03;;;-0.90;99.90;;;;;;5009893;28;20187;-79
2022/12/19 04:42:18;;;;;;;11.43;7.23;;;-0.90;99.90;;;;;;5009819;28;20210;-79
2022/12/19 04:44:43;;;;;;;10.90;7.47;;;-0.80;99.90;;;;;;5009131;28;20207;-81
2022/12/19 04:47:09;;;;;;;10.10;7.40;;;-0.90;99.90;;;;;;5007983;28;20330;-79
2022/12/19 04:49:35;;;;;;;12.90;7.63;;;-0.80;99.90;;;;;;5008352;28;20187;-79
2022/12/19 04:52:00;;;;;;;11.43;7.40;;;-0.80;99.90;;;;;;5008218;28;20187;-80
2022/12/19 04:54:26;;;;;;;9.43;7.00;;;-0.70;99.90;;;;;;5007734;28;20200;-79
2022/12/19 04:56:52;;;;;;;11.40;7.77;;;-0.70;99.90;;;;;;5006870;28;20645;-79
2022/12/19 04:59:18;;;;;;;11.03;7.40;;;-0.50;99.90;;;;;;5021760;28;20187;-78
2022/12/19 05:01:43;;;;;;;9.83;6.73;;;-0.70;99.90;;;;;;5009128;28;20230;-79
2022/12/19 05:04:09;;;;;;;10.47;6.97;;;-0.60;99.90;;;;;;5008698;28;20213;-79
2022/12/19 05:06:34;;;;;;;10.77;7.50;;;-0.50;99.90;;;;;;5008570;28;20383;-80
2022/12/19 05:09:00;;;;;;;11.23;7.83;;;-0.40;99.90;;;;;;5008529;28;20188;-79
2022/12/19 05:11:26;;;;;;;9.47;7.37;;;-0.30;99.90;;;;;;5006773;28;20795;-78
2022/12/19 05:13:51;;;;;;;9.87;7.20;;;-0.20;99.90;;;;;;5006323;28;20249;-80
2022/12/19 05:16:17;;;;;;;10.33;6.93;;;-0.20;99.90;;;;;;5007794;28;20261;-78
2022/12/19 05:18:43;;;;;;;9.00;7.27;;;-0.10;99.90;;;;;;5007632;28;20234;-78
2022/12/19 05:21:09;;;;;;;10.27;7.63;;;-0.10;99.90;;;;;;5007949;28;20552;-79
2022/12/19 05:23:35;;;;;;;11.43;7.30;;;0.00;99.90;;;;;;5007045;28;20203;-79
2022/12/19 05:26:03;;;;;;;8.30;7.07;;;0.00;99.90;;;;;;5022164;28;20207;-80
2022/12/19 05:28:30;;;;;;;11.13;7.53;;;0.20;99.90;;;;;;5007220;28;20195;-80
2022/12/19 05:31:13;;;;;;;10.70;6.77;;;0.10;99.90;;;;;;5022628;28;20184;-79
2022/12/19 05:33:39;;;;;;;9.97;7.40;;;0.20;99.90;;;;;;5023128;28;20207;-78
2022/12/19 05:36:07;;;;;;;9.43;6.50;;;0.20;99.90;;;;;;5007814;28;20196;-80
2022/12/19 05:38:33;;;;;;;10.27;7.07;;;0.30;99.90;;;;;;5008367;28;20210;-79
2022/12/19 05:40:58;;;;;;;9.43;6.80;;;0.40;99.90;;;;;;5006713;28;20624;-77
2022/12/19 05:43:25;;;;;;;10.87;8.30;;;0.40;99.90;;;;;;5006934;28;20195;-78
2022/12/19 05:45:51;;;;;;;10.63;7.60;;;0.40;99.90;;;;;;5007544;28;20216;-79
2022/12/19 05:48:17;;;;;;;11.20;8.10;;;0.40;99.90;;;;;;5008311;28;20192;-78
2022/12/19 05:50:48;;;;;;;9.30;7.60;;;0.30;99.90;;;;;;5006908;28;20183;-77
2022/12/19 05:53:15;;;;;;;11.27;8.07;;;0.30;99.90;;;;;;5008558;28;20249;-78
2022/12/19 05:55:40;;;;;;;11.10;8.10;;;0.50;99.90;;;;;;5007858;28;20183;-79
2022/12/19 05:58:06;;;;;;;12.77;8.70;;;0.50;99.90;;;;;;5008814;28;20191;-79
2022/12/19 06:00:32;;;;;;;12.73;7.87;;;0.60;99.90;;;;;;5007787;28;20234;-78
2022/12/19 06:02:57;;;;;;;10.87;8.17;;;0.60;99.90;;;;;;5006566;28;20243;-78
2022/12/19 06:05:23;;;;;;;9.37;7.57;;;0.70;99.90;;;;;;5007566;28;20230;-79
2022/12/19 06:07:49;;;;;;;11.77;8.07;;;0.60;99.90;;;;;;5007894;28;20206;-78
2022/12/19 06:10:14;;;;;;;10.43;7.60;;;0.60;99.90;;;;;;5008049;28;20179;-79
2022/12/19 06:12:40;;;;;;;9.80;7.10;;;0.60;99.90;;;;;;5007989;28;20249;-79
2022/12/19 06:15:06;;;;;;;9.87;7.27;;;0.50;99.90;;;;;;5007709;28;20199;-78
2022/12/19 06:17:32;;;;;;;8.87;6.70;;;0.60;99.90;;;;;;5006108;28;20187;-78
2022/12/19 06:19:57;;;;;;;9.93;7.50;;;0.50;99.90;;;;;;5006459;28;20657;-79
2022/12/19 06:22:23;;;;;;;11.37;8.00;;;0.50;99.90;;;;;;5006116;28;20659;-79
2022/12/19 06:24:49;;;;;;;11.07;8.07;;;0.40;99.90;;;;;;5007373;28;20552;-77
2022/12/19 06:27:14;;;;;;;10.00;7.73;;;0.50;1.00;;;;;;5005977;28;20172;-77
2022/12/19 06:29:40;;;;;;;9.23;7.20;;;0.40;1.00;;;;;;5007328;28;20955;-78
2022/12/19 06:32:05;;;;;;;12.53;8.47;;;0.50;1.00;;;;;;5005905;28;20302;-78
2022/12/19 06:34:31;;;;;;;10.60;8.20;;;0.20;1.00;;;;;;5005896;28;20218;-79
2022/12/19 06:36:56;;;;;;;10.77;8.20;;;0.60;1.00;;;;;;5006143;28;20831;-79
2022/12/19 06:39:22;;;;;;;12.23;8.47;;;0.50;1.00;;;;;;5006207;28;20183;-78
2022/12/19 06:44:32;;;;;;;10.67;8.00;;;0.70;1.00;;;;;;5006884;28;20238;-77
2022/12/19 06:46:58;;;;;;;9.57;7.50;;;0.70;1.00;;;;;;5007148;28;20971;-79
2022/12/19 06:49:23;;;;;;;13.10;8.27;;;0.70;1.00;;;;;;5006387;28;20190;-78
2022/12/19 06:51:49;;;;;;;10.07;8.00;;;0.60;1.00;;;;;;5005601;28;20179;-79
2022/12/19 06:54:15;;;;;;;15.47;8.73;;;0.60;1.00;;;;;;5006284;28;20203;-78
2022/12/19 06:56:42;;;;;;;12.53;8.40;;;0.50;1.00;;;;;;5008002;28;20176;-79
2022/12/19 06:59:11;;;;;;;11.67;8.40;;;0.50;64.80;;;;;;5022515;28;20649;-78
2022/12/19 07:02:11;;;;;;;12.00;8.50;;;0.70;22.60;;;;;;5006241;28;20189;-77
2022/12/19 07:04:41;;;;;;;12.60;8.53;;;0.90;1.00;;;;;;5007069;28;20203;-77
2022/12/19 07:07:07;;;;;;;11.67;8.10;;;1.00;1.00;;;;;;5005877;28;20168;-78
2022/12/19 07:09:33;;;;;;;12.73;9.10;;;1.00;99.90;;;;;;5006652;28;20557;-76
2022/12/19 07:11:59;;;;;;;11.47;7.73;;;1.10;1.00;;;;;;5006268;28;20176;-79
2022/12/19 07:14:25;;;;;;;9.13;7.23;;;1.20;1.00;;;;;;5006046;28;20200;-78
2022/12/19 07:16:53;;;;;;;12.30;8.30;;;1.20;1.00;;;;;;5003934;28;20183;-79
2022/12/19 07:19:20;;;;;;;11.77;8.37;;;1.30;99.90;;;;;;5006919;28;20194;-79
2022/12/19 07:21:47;;;;;;;9.63;7.43;;;1.40;99.90;;;;;;5009880;28;20262;-79
2022/12/19 07:24:13;;;;;;;13.03;8.50;;;1.40;99.90;;;;;;5009836;28;20200;-78
2022/12/19 07:26:40;;;;;;;16.13;12.17;;;1.50;99.90;;;;;;5009190;28;20204;-78
2022/12/19 07:29:07;;;;;;;25.37;21.83;;;1.40;99.90;;;;;;5010445;28;20194;-79
2022/12/19 07:31:32;;;;;;;26.30;23.47;;;1.50;99.90;;;;;;5008802;28;20931;-78
2022/12/19 07:33:58;;;;;;;20.30;14.47;;;1.50;99.90;;;;;;5006917;28;20211;-79
2022/12/19 07:36:24;;;;;;;26.03;19.43;;;1.50;99.90;;;;;;5007297;28;20186;-78
2022/12/19 07:38:49;;;;;;;27.20;19.63;;;1.60;99.90;;;;;;5007887;28;20310;-78
2022/12/19 07:41:15;;;;;;;21.37;16.33;;;1.60;99.90;;;;;;5005648;28;20184;-78
2022/12/19 07:43:41;;;;;;;15.70;11.93;;;1.70;1.00;;;;;;5007150;28;20207;-78
2022/12/19 07:46:07;;;;;;;13.17;9.97;;;1.70;1.00;;;;;;5008547;28;20207;-79
2022/12/19 07:48:32;;;;;;;14.93;10.73;;;1.80;1.00;;;;;;5007640;28;20709;-79
2022/12/19 07:50:58;;;;;;;11.10;8.67;;;1.80;99.90;;;;;;5005537;28;20728;-78
2022/12/19 07:53:24;;;;;;;12.30;8.97;;;1.90;99.90;;;;;;5007853;28;20210;-82
2022/12/19 07:55:51;;;;;;;12.37;8.53;;;1.90;99.90;;;;;;5005668;28;20183;-78
2022/12/19 07:58:17;;;;;;;14.57;9.47;;;1.90;99.90;;;;;;5023329;28;20184;-78
2022/12/19 08:00:42;;;;;;;13.90;8.83;;;1.90;99.90;;;;;;5022430;28;20254;-79
2022/12/19 08:03:08;;;;;;;15.17;10.37;;;1.90;99.90;;;;;;5006942;28;20218;-79
2022/12/19 08:05:34;;;;;;;15.30;10.13;;;2.70;99.90;;;;;;5005045;28;20725;-79
2022/12/19 08:07:59;;;;;;;15.20;10.67;;;1.90;99.90;;;;;;5008379;28;20180;-79
2022/12/19 08:10:25;;;;;;;15.50;10.30;;;1.90;1.00;;;;;;5006057;28;20218;-79
2022/12/19 08:12:51;;;;;;;19.80;11.13;;;1.90;1.00;;;;;;5007852;28;20199;-79
2022/12/19 08:15:16;;;;;;;14.33;10.00;;;2.00;1.00;;;;;;5008412;28;20200;-80
2022/12/19 08:17:43;;;;;;;18.53;11.30;;;2.00;1.00;;;;;;5008940;28;20269;-79
2022/12/19 08:20:12;;;;;;;17.57;11.37;;;1.90;1.00;;;;;;5007887;28;20646;-79
2022/12/19 08:22:38;;;;;;;14.37;10.17;;;1.90;1.00;;;;;;5008020;28;20203;-79
2022/12/19 08:25:05;;;;;;;17.60;11.10;;;1.40;1.00;;;;;;5005787;28;21088;-79
2022/12/19 08:27:31;;;;;;;16.47;11.90;;;2.00;1.00;;;;;;5005632;28;20249;-79
2022/12/19 08:29:57;;;;;;;14.90;10.37;;;2.00;37.70;;;;;;5007613;28;20188;-80
2022/12/19 08:32:22;;;;;;;15.13;11.37;;;2.10;1.00;;;;;;5006868;28;20190;-79
2022/12/19 08:34:49;;;;;;;16.20;11.13;;;2.00;1.00;;;;;;5005794;28;20187;-79
2022/12/19 08:37:14;;;;;;;15.70;11.23;;;1.90;1.00;;;;;;5006396;28;20190;-80
2022/12/19 08:39:40;;;;;;;15.73;11.17;;;1.90;1.00;;;;;;5008104;28;20549;-80
2022/12/19 08:42:05;;;;;;;15.27;11.13;;;2.00;6.00;;;;;;5006258;28;20207;-81
2022/12/19 08:44:31;;;;;;;15.97;11.57;;;2.00;56.40;;;;;;5008712;28;20210;-80
2022/12/19 08:46:57;;;;;;;20.10;12.53;;;2.20;99.90;;;;;;5006604;28;20207;-80
2022/12/19 08:49:22;;;;;;;15.83;11.10;;;2.20;99.90;;;;;;5004935;28;20183;-80
2022/12/19 08:51:48;;;;;;;16.40;11.70;;;2.10;99.90;;;;;;5006429;28;20258;-80
2022/12/19 08:54:14;;;;;;;46.90;31.43;;;2.10;99.90;;;;;;5005350;28;20235;-80
2022/12/19 08:56:39;;;;;;;29.10;25.83;;;2.00;92.60;;;;;;5004669;28;20671;-80
2022/12/19 08:59:05;;;;;;;22.40;17.07;;;2.00;96.40;;;;;;5003855;28;20183;-80
2022/12/19 09:01:31;;;;;;;30.67;27.07;;;2.00;1.00;;;;;;5005883;28;20192;-80
2022/12/19 09:04:00;;;;;;;18.13;14.33;;;2.00;1.00;;;;;;5005661;28;20294;-79
2022/12/19 09:06:25;;;;;;;16.90;12.63;;;2.00;26.60;;;;;;5005133;28;20215;-79
2022/12/19 09:08:51;;;;;;;17.03;12.07;;;2.00;99.90;;;;;;5006064;28;20198;-80
2022/12/19 09:11:19;;;;;;;18.80;13.93;;;2.80;99.90;;;;;;5007435;28;20187;-79
2022/12/19 09:13:45;;;;;;;23.43;19.53;;;2.10;1.00;;;;;;5005451;28;20254;-80
2022/12/19 09:16:17;;;;;;;17.93;11.77;;;2.20;99.90;;;;;;5006503;28;20917;-80
2022/12/19 09:18:45;;;;;;;18.80;12.70;;;2.30;99.90;;;;;;5006876;28;20188;-79
2022/12/19 09:21:12;;;;;;;18.87;14.37;;;2.50;1.00;;;;;;5005360;28;20215;-79
2022/12/19 09:23:38;;;;;;;17.77;13.70;;;2.90;99.90;;;;;;5005233;28;20211;-80
2022/12/19 09:26:06;;;;;;;17.83;13.53;;;2.60;99.90;;;;;;5006212;28;20208;-80
2022/12/19 09:28:33;;;;;;;16.47;12.80;;;2.70;99.90;;;;;;5008188;28;20190;-80
2022/12/19 09:31:09;;;;;;;17.50;12.90;;;2.70;99.90;;;;;;5003576;28;20218;-79
2022/12/19 09:33:35;;;;;;;15.17;11.60;;;2.80;99.90;;;;;;5006422;28;20210;-80
2022/12/19 09:36:02;;;;;;;17.07;10.73;;;2.80;99.90;;;;;;5006436;28;20188;-80
2022/12/19 09:38:29;;;;;;;19.93;17.67;;;2.80;99.90;;;;;;5007506;28;20362;-80
2022/12/19 09:40:57;;;;;;;15.97;11.93;;;2.70;1.00;;;;;;5006911;28;20557;-80
2022/12/19 09:43:29;;;;;;;16.97;11.53;;;2.80;1.00;;;;;;5005371;28;20207;-81
2022/12/19 09:46:03;;;;;;;15.63;11.50;;;2.90;1.00;;;;;;5021124;28;20207;-80
2022/12/19 09:48:28;;;;;;;15.07;12.00;;;2.90;1.00;;;;;;5006801;28;20203;-80
2022/12/19 09:51:00;;;;;;;19.10;14.20;;;3.00;99.90;;;;;;5005273;28;20243;-80
2022/12/19 09:53:38;;;;;;;14.20;11.80;;;3.10;99.90;;;;;;5005655;28;20258;-80
2022/12/19 09:56:09;;;;;;;15.60;12.10;;;3.10;99.90;;;;;;5004771;28;20206;-80
2022/12/19 09:58:41;;;;;;;11.50;9.40;;;3.20;99.90;;;;;;5005025;28;20270;-80
2022/12/19 10:01:22;;;;;;;13.73;10.20;;;3.40;99.90;;;;;;5006399;28;20191;-81
2022/12/19 10:03:58;;;;;;;14.13;11.10;;;3.50;1.00;;;;;;5005923;28;20221;-80
2022/12/19 10:06:24;;;;;;;13.93;11.50;;;3.50;1.00;;;;;;5006458;28;20201;-80
2022/12/19 10:08:50;;;;;;;19.47;17.40;;;3.70;1.00;;;;;;5006461;28;20281;-80
2022/12/19 10:11:16;;;;;;;13.70;12.15;;;3.60;1.00;;;;;;5007001;28;20423;-80
2022/12/19 10:13:42;;;;;;;11.13;9.70;;;3.60;1.00;;;;;;5004684;28;20312;-83
2022/12/19 10:16:42;;;;;;;15.10;12.83;;;3.70;99.90;;;;;;5004203;28;20204;-82
2022/12/19 10:19:18;;;;;;;10.83;8.50;;;3.70;1.00;;;;;;5003811;28;20274;-83
2022/12/19 10:21:48;;;;;;;9.53;7.70;;;4.40;99.90;;;;;;5005261;28;20187;-82
2022/12/19 10:24:23;;;;;;;9.23;7.40;;;3.80;99.90;;;;;;5004596;28;20204;-82
2022/12/19 10:26:57;;;;;;;7.70;6.27;;;3.80;1.00;;;;;;5019502;28;20198;-81
2022/12/19 10:30:00;;;;;;;8.03;6.33;;;4.10;1.00;;;;;;5005692;28;20225;-83
2022/12/19 10:32:41;;;;;;;8.73;6.50;;;3.90;1.00;;;;;;4997742;28;20669;-82
2022/12/19 10:35:13;;;;;;;7.80;6.37;;;4.50;79.20;;;;;;5003268;28;20733;-81
2022/12/19 10:37:59;;;;;;;8.30;6.80;;;4.00;99.90;;;;;;5019388;28;20524;-82
2022/12/19 10:40:44;;;;;;;10.10;7.33;;;3.90;99.90;;;;;;5003737;28;20282;-82
2022/12/19 10:43:25;;;;;;;9.67;7.50;;;3.70;1.00;;;;;;5005455;28;20780;-82
2022/12/19 10:45:56;;;;;;;9.57;7.27;;;3.70;99.90;;;;;;5004374;28;20207;-81
2022/12/19 10:48:22;;;;;;;7.63;6.37;;;3.70;1.00;;;;;;5003740;28;20178;-82
2022/12/19 10:50:48;;;;;;;8.90;6.53;;;3.70;1.00;;;;;;5001185;28;20176;-81
2022/12/19 10:53:15;;;;;;;8.00;6.57;;;3.80;99.90;;;;;;5004364;28;20199;-81
2022/12/19 10:55:50;;;;;;;7.30;6.00;;;3.90;99.90;;;;;;5003842;28;20250;-80
2022/12/19 10:58:25;;;;;;;9.57;6.63;;;3.90;1.00;;;;;;5008931;28;20194;-80
2022/12/19 11:01:10;;;;;;;9.90;7.20;;;4.00;1.00;;;;;;5007826;28;20664;-82
2022/12/19 11:03:38;;;;;;;9.13;6.60;;;4.10;99.90;;;;;;5006745;28;20264;-81
2022/12/19 11:06:05;;;;;;;8.17;7.03;;;4.20;99.90;;;;;;5008186;28;20957;-82
2022/12/19 11:08:35;;;;;;;8.47;6.83;;;4.30;1.00;;;;;;5007717;28;20183;-82
2022/12/19 11:11:03;;;;;;;7.60;5.83;;;4.20;99.90;;;;;;5006433;28;20711;-83
2022/12/19 11:13:45;;;;;;;6.83;5.93;;;4.10;99.90;;;;;;5008331;28;20215;-82
2022/12/19 11:16:19;;;;;;;7.70;6.43;;;4.30;1.00;;;;;;5006204;28;20289;-82
2022/12/19 11:18:47;;;;;;;8.37;6.40;;;4.10;99.90;;;;;;5008936;28;20176;-81
2022/12/19 11:21:12;;;;;;;8.57;6.47;;;4.20;1.00;;;;;;5007347;28;20190;-82
2022/12/19 11:24:02;;;;;;;8.30;6.10;;;4.20;1.00;;;;;;5006705;28;20212;-82
2022/12/19 11:26:47;;;;;;;9.50;7.17;;;4.30;1.00;;;;;;5005946;28;20235;-80
2022/12/19 11:29:19;;;;;;;7.90;7.03;;;4.40;99.90;;;;;;5023829;28;20191;-81
2022/12/19 11:31:46;;;;;;;10.13;7.43;;;4.70;1.00;;;;;;5007131;28;20732;-81
2022/12/19 11:34:18;;;;;;;9.97;7.57;;;4.90;1.00;;;;;;5003553;28;20929;-83
2022/12/19 11:36:46;;;;;;;10.37;8.33;;;4.90;99.90;;;;;;5004878;28;20183;-81
2022/12/19 11:39:21;;;;;;;10.63;8.80;;;4.60;1.00;;;;;;5006250;28;20254;-82
2022/12/19 11:41:58;;;;;;;7.93;7.03;;;5.20;1.00;;;;;;5006060;28;20637;-81
2022/12/19 11:44:45;;;;;;;8.77;7.43;;;5.20;89.60;;;;;;5007211;28;20198;-81
2022/12/19 11:48:00;;;;;;;9.60;7.27;;;5.20;1.00;;;;;;5005308;28;20562;-81
2022/12/19 11:50:33;;;;;;;8.60;7.30;;;5.00;99.90;;;;;;5002280;28;20200;-81
2022/12/19 11:53:29;;;;;;;8.77;7.47;;;4.80;1.00;;;;;;5006405;28;20243;-81
2022/12/19 11:56:13;;;;;;;9.77;8.13;;;4.90;1.00;;;;;;5005990;28;20187;-81
2022/12/19 11:58:39;;;;;;;9.23;7.40;;;5.20;99.90;;;;;;5022185;28;20188;-82
2022/12/19 12:01:37;;;;;;;8.90;8.00;;;5.10;99.90;;;;;;5006307;28;20202;-82
2022/12/19 12:04:17;;;;;;;7.93;7.13;;;5.10;95.30;;;;;;5005990;28;20302;-82
2022/12/19 12:06:51;;;;;;;8.23;6.33;;;4.80;1.00;;;;;;5004892;28;20203;-82
2022/12/19 12:09:22;;;;;;;8.40;6.97;;;4.80;99.90;;;;;;5007348;28;20246;-82
2022/12/19 12:12:07;;;;;;;8.27;6.70;;;4.70;1.00;;;;;;5006095;28;20180;-82
2022/12/19 12:14:47;;;;;;;7.77;6.30;;;4.60;1.00;;;;;;5004960;28;20270;-82
2022/12/19 12:17:43;;;;;;;7.80;6.80;;;4.50;99.90;;;;;;5021115;28;20893;-82
2022/12/19 12:20:18;;;;;;;10.33;7.03;;;4.60;36.20;;;;;;5001940;28;20568;-82
2022/12/19 12:22:58;;;;;;;13.47;11.27;;;4.70;99.90;;;;;;5004909;28;20227;-82
2022/12/19 12:25:39;;;;;;;18.53;14.20;;;4.70;99.90;;;;;;5006783;28;20203;-82
2022/12/19 12:28:33;;;;;;;10.37;9.27;;;4.80;1.00;;;;;;5007319;28;20187;-82
2022/12/19 12:31:13;;;;;;;9.93;8.03;;;4.80;1.00;;;;;;5021132;28;20298;-82
2022/12/19 12:33:42;;;;;;;14.27;12.87;;;4.60;1.00;;;;;;5005463;28;20203;-83
2022/12/19 12:36:20;;;;;;;10.53;8.60;;;4.70;99.90;;;;;;5021374;28;20192;-83
2022/12/19 12:39:04;;;;;;;9.63;8.27;;;4.70;99.90;;;;;;5005574;28;20191;-83
2022/12/19 12:42:04;;;;;;;11.20;9.90;;;4.80;99.90;;;;;;5006158;28;21139;-83
2022/12/19 12:44:37;;;;;;;10.00;8.90;;;4.80;99.90;;;;;;5006055;28;20836;-82
2022/12/19 12:47:17;;;;;;;9.03;7.93;;;5.00;99.90;;;;;;5005363;28;20262;-83
2022/12/19 12:49:47;;;;;;;9.30;7.93;;;5.20;1.00;;;;;;5005479;28;20198;-83
2022/12/19 12:52:46;;;;;;;8.80;7.67;;;4.90;1.00;;;;;;5006561;28;20275;-82
2022/12/19 12:55:36;;;;;;;11.00;8.43;;;4.90;41.70;;;;;;5006475;28;20189;-83
2022/12/19 12:58:01;;;;;;;9.97;8.90;;;4.90;99.90;;;;;;5007251;28;20187;-82
2022/12/19 13:00:30;;;;;;;10.17;8.47;;;4.90;99.90;;;;;;5007073;28;20191;-82
2022/12/19 13:03:08;;;;;;;11.20;8.83;;;5.00;1.00;;;;;;5007517;28;20213;-83
2022/12/19 13:05:58;;;;;;;11.10;8.70;;;5.00;1.00;;;;;;5006596;28;20199;-83
2022/12/19 13:08:33;;;;;;;9.20;8.00;;;5.10;1.00;;;;;;5005352;28;20171;-83